Time;durP1;ratioP1;P1;durP2;ratioP2;P2;SDS_P1;SDS_P2;PMS_P1;PMS_P2;Temp;Humidity;BMP_temperature;BMP_pressure;BME280_temperature;BME280_humidity;BME280_pressure;Samples;Min_cycle;Max_cycle;Signal;HPM_P1;HPM_P2
2023/12/14 00:01:16;;;;;;;15.53;11.17;;;4.90;99.90;;;;;;5106103;28;20225;-77
2023/12/14 00:03:44;;;;;;;19.30;12.60;;;4.90;99.90;;;;;;5109814;28;20240;-79
2023/12/14 00:06:13;;;;;;;15.00;11.90;;;4.90;99.90;;;;;;5096887;28;20658;-78
2023/12/14 00:08:40;;;;;;;16.33;12.87;;;5.00;99.90;;;;;;5095450;28;20227;-79
2023/12/14 00:11:09;;;;;;;16.47;12.63;;;5.00;99.90;;;;;;5094826;28;20173;-78
2023/12/14 00:13:34;;;;;;;16.53;12.27;;;4.90;99.90;;;;;;5103726;28;20640;-77
2023/12/14 00:16:01;;;;;;;17.50;13.00;;;4.90;99.90;;;;;;5112430;28;20199;-77
2023/12/14 00:18:27;;;;;;;16.07;13.77;;;4.80;99.90;;;;;;5100929;28;20183;-79
2023/12/14 00:20:53;;;;;;;16.57;13.27;;;4.80;99.90;;;;;;5096692;28;20183;-79
2023/12/14 00:23:19;;;;;;;19.07;13.40;;;4.80;99.90;;;;;;5095918;28;20564;-80
2023/12/14 00:25:46;;;;;;;17.20;13.20;;;4.90;99.90;;;;;;5094172;28;20183;-80
2023/12/14 00:28:12;;;;;;;22.17;13.70;;;5.00;99.90;;;;;;5094641;28;20840;-77
2023/12/14 00:30:37;;;;;;;15.23;12.70;;;4.90;99.90;;;;;;5094257;28;20180;-78
2023/12/14 00:33:03;;;;;;;15.03;12.70;;;5.00;99.90;;;;;;5094451;28;20190;-76
2023/12/14 00:35:29;;;;;;;13.80;11.40;;;5.00;99.90;;;;;;5094533;28;20258;-79
2023/12/14 00:37:55;;;;;;;14.03;10.43;;;5.00;99.90;;;;;;5094037;28;20253;-79
2023/12/14 00:40:20;;;;;;;14.13;10.67;;;5.00;99.90;;;;;;5094991;28;20203;-80
2023/12/14 00:42:46;;;;;;;13.30;10.13;;;5.00;99.90;;;;;;5095480;28;20639;-80
2023/12/14 00:45:12;;;;;;;12.90;10.30;;;4.90;99.90;;;;;;5093421;28;20184;-80
2023/12/14 00:47:38;;;;;;;12.17;10.17;;;4.90;99.90;;;;;;5094295;28;20640;-80
2023/12/14 00:50:04;;;;;;;12.93;10.17;;;4.90;99.90;;;;;;5094113;28;20231;-77
2023/12/14 00:52:30;;;;;;;12.90;9.90;;;4.90;99.90;;;;;;5094778;28;20226;-80
2023/12/14 00:54:56;;;;;;;13.27;9.77;;;4.90;99.90;;;;;;5094874;28;20525;-79
2023/12/14 00:57:21;;;;;;;15.00;9.20;;;4.90;99.90;;;;;;5093931;28;20179;-78
2023/12/14 00:59:47;;;;;;;14.57;10.13;;;5.00;99.90;;;;;;5094129;28;20194;-79
2023/12/14 01:02:13;;;;;;;12.87;9.93;;;5.10;99.90;;;;;;5077982;28;20196;-80
2023/12/14 01:04:39;;;;;;;10.67;9.20;;;5.10;99.90;;;;;;5055328;28;20213;-78
2023/12/14 01:07:04;;;;;;;11.40;9.57;;;5.10;99.90;;;;;;5073236;28;20531;-78
2023/12/14 01:09:30;;;;;;;13.73;10.27;;;5.10;99.90;;;;;;5072986;28;20324;-80
2023/12/14 01:11:56;;;;;;;13.83;9.17;;;5.20;99.90;;;;;;5073487;28;20637;-79
2023/12/14 01:14:22;;;;;;;10.87;8.90;;;5.20;99.90;;;;;;5078683;28;20238;-76
2023/12/14 01:16:48;;;;;;;11.50;9.00;;;5.10;99.90;;;;;;5087092;28;20267;-77
2023/12/14 01:19:13;;;;;;;13.13;9.93;;;5.10;99.90;;;;;;5085251;28;20599;-80
2023/12/14 01:21:39;;;;;;;11.40;8.87;;;5.10;99.90;;;;;;5078245;28;20234;-79
2023/12/14 01:24:05;;;;;;;11.03;9.00;;;5.10;99.90;;;;;;5060338;28;20186;-80
2023/12/14 01:26:31;;;;;;;9.40;8.43;;;5.10;99.90;;;;;;5077284;28;20201;-78
2023/12/14 01:28:58;;;;;;;10.27;8.37;;;5.00;99.90;;;;;;5077797;28;20208;-78
2023/12/14 01:31:25;;;;;;;11.73;8.87;;;5.00;99.90;;;;;;5058829;28;20187;-78
2023/12/14 01:33:51;;;;;;;10.53;8.13;;;5.00;99.90;;;;;;5076994;28;20181;-78
2023/12/14 01:36:25;;;;;;;8.83;7.50;;;4.90;99.90;;;;;;5077132;28;20211;-78
2023/12/14 01:38:51;;;;;;;13.30;8.53;;;5.00;99.90;;;;;;5076406;28;20203;-78
2023/12/14 01:41:18;;;;;;;8.73;7.53;;;5.00;99.90;;;;;;5077505;28;20236;-79
2023/12/14 01:43:44;;;;;;;9.13;7.93;;;5.00;99.90;;;;;;5058736;28;20185;-79
2023/12/14 01:46:10;;;;;;;10.13;7.70;;;5.00;99.90;;;;;;5077014;28;20174;-78
2023/12/14 01:48:36;;;;;;;9.43;8.00;;;5.10;99.90;;;;;;5058032;28;20217;-77
2023/12/14 01:51:02;;;;;;;7.57;6.87;;;5.10;99.90;;;;;;5058399;28;20224;-77
2023/12/14 01:53:28;;;;;;;9.73;7.77;;;5.10;99.90;;;;;;5077859;28;20250;-77
2023/12/14 01:55:54;;;;;;;9.33;8.00;;;5.10;99.90;;;;;;5077461;28;20861;-76
2023/12/14 01:58:20;;;;;;;9.93;7.90;;;5.20;99.90;;;;;;5080193;28;20691;-78
2023/12/14 02:00:52;;;;;;;8.70;7.37;;;5.20;99.90;;;;;;5077551;28;20226;-79
2023/12/14 02:03:18;;;;;;;12.33;8.30;;;5.20;99.90;;;;;;5075291;28;20168;-78
2023/12/14 02:05:44;;;;;;;8.80;7.90;;;5.20;99.90;;;;;;5076118;28;20258;-78
2023/12/14 02:08:10;;;;;;;10.27;7.80;;;5.20;99.90;;;;;;5076220;28;20205;-80
2023/12/14 02:10:35;;;;;;;8.23;7.30;;;5.20;99.90;;;;;;5077283;28;20229;-79
2023/12/14 02:13:02;;;;;;;9.60;7.20;;;5.20;99.90;;;;;;5079249;28;20179;-78
2023/12/14 02:15:29;;;;;;;7.43;5.97;;;5.20;99.90;;;;;;5076743;28;20185;-80
2023/12/14 02:17:55;;;;;;;7.03;6.30;;;5.20;99.90;;;;;;5076169;28;20172;-78
2023/12/14 02:20:21;;;;;;;7.97;6.30;;;5.10;99.90;;;;;;5076018;28;20686;-78
2023/12/14 02:22:54;;;;;;;7.07;6.17;;;5.20;99.90;;;;;;5075545;28;20634;-78
2023/12/14 02:25:21;;;;;;;9.10;6.30;;;5.10;99.90;;;;;;5075846;28;20176;-78
2023/12/14 02:27:50;;;;;;;6.93;5.87;;;5.10;99.90;;;;;;5074718;28;20171;-80
2023/12/14 02:30:16;;;;;;;8.47;6.20;;;5.10;99.90;;;;;;5074475;28;20172;-77
2023/12/14 02:32:42;;;;;;;9.77;5.70;;;5.10;99.90;;;;;;5074722;28;20172;-80
2023/12/14 02:35:10;;;;;;;6.77;5.87;;;5.10;99.90;;;;;;5074931;28;20667;-78
2023/12/14 02:37:42;;;;;;;6.87;5.57;;;5.10;99.90;;;;;;5057100;28;20173;-80
2023/12/14 02:40:08;;;;;;;7.60;5.90;;;5.10;99.90;;;;;;5077890;28;20212;-76
2023/12/14 02:42:34;;;;;;;7.13;5.87;;;5.10;99.90;;;;;;5072673;28;20166;-77
2023/12/14 02:45:02;;;;;;;6.40;5.80;;;5.20;99.90;;;;;;5070995;28;20290;-80
2023/12/14 02:47:29;;;;;;;7.03;5.87;;;5.20;99.90;;;;;;5083090;28;20196;-79
2023/12/14 02:49:55;;;;;;;5.20;4.77;;;5.10;99.90;;;;;;5075982;28;20209;-76
2023/12/14 02:52:21;;;;;;;12.03;6.10;;;5.20;99.90;;;;;;5074778;28;20180;-78
2023/12/14 02:54:47;;;;;;;6.37;5.50;;;5.20;99.90;;;;;;5076266;28;20180;-79
2023/12/14 02:57:13;;;;;;;5.33;4.83;;;5.20;99.90;;;;;;5074767;28;20169;-78
2023/12/14 02:59:39;;;;;;;5.70;5.20;;;5.20;99.90;;;;;;5076539;28;20566;-77
2023/12/14 03:02:05;;;;;;;5.40;4.90;;;5.30;99.90;;;;;;5078903;28;20179;-77
2023/12/14 03:04:31;;;;;;;5.87;5.30;;;5.30;99.90;;;;;;5083526;28;20183;-78
2023/12/14 03:06:57;;;;;;;7.30;5.73;;;5.30;99.90;;;;;;5074927;28;20176;-80
2023/12/14 03:09:23;;;;;;;5.53;5.03;;;5.30;99.90;;;;;;5074349;28;20222;-77
2023/12/14 03:11:49;;;;;;;5.93;5.33;;;5.30;99.90;;;;;;5074477;28;20170;-78
2023/12/14 03:14:15;;;;;;;6.00;5.40;;;5.30;99.90;;;;;;5083573;28;20177;-79
2023/12/14 03:16:40;;;;;;;6.27;5.20;;;5.30;99.90;;;;;;5092442;28;20182;-78
2023/12/14 03:19:06;;;;;;;5.93;5.30;;;5.30;99.90;;;;;;5077978;28;20683;-79
2023/12/14 03:21:32;;;;;;;5.80;5.20;;;5.40;99.90;;;;;;5073871;28;20188;-79
2023/12/14 03:23:58;;;;;;;6.40;5.80;;;5.50;99.90;;;;;;5074418;28;20171;-79
2023/12/14 03:26:24;;;;;;;8.93;6.77;;;5.50;99.90;;;;;;5073957;28;20177;-79
2023/12/14 03:28:51;;;;;;;8.90;7.60;;;5.50;99.90;;;;;;5073293;28;20168;-79
2023/12/14 03:31:16;;;;;;;10.70;8.07;;;5.40;99.90;;;;;;5075208;28;20177;-78
2023/12/14 03:33:43;;;;;;;12.00;10.00;;;5.30;99.90;;;;;;5062410;28;20247;-76
2023/12/14 03:36:09;;;;;;;11.63;10.13;;;5.20;99.90;;;;;;5089675;28;20186;-79
2023/12/14 03:38:35;;;;;;;11.70;9.70;;;5.20;99.90;;;;;;5084976;28;20185;-78
2023/12/14 03:41:04;;;;;;;12.40;9.70;;;5.10;99.90;;;;;;5076133;28;20176;-76
2023/12/14 03:43:30;;;;;;;13.07;10.27;;;5.20;99.90;;;;;;5074198;28;20714;-80
2023/12/14 03:45:55;;;;;;;14.33;12.30;;;5.10;99.90;;;;;;5073934;28;20262;-79
2023/12/14 03:48:21;;;;;;;14.00;12.00;;;5.10;99.90;;;;;;5074206;28;20172;-80
2023/12/14 03:50:47;;;;;;;12.93;11.43;;;5.00;99.90;;;;;;5073558;28;20539;-80
2023/12/14 03:53:12;;;;;;;13.70;11.97;;;5.00;99.90;;;;;;5056566;28;20191;-77
2023/12/14 03:55:38;;;;;;;15.50;12.77;;;5.00;99.90;;;;;;5074833;28;20172;-79
2023/12/14 03:58:04;;;;;;;13.53;12.10;;;5.00;99.90;;;;;;5076509;28;20231;-79
2023/12/14 04:00:32;;;;;;;15.63;13.70;;;5.00;99.90;;;;;;5058550;28;20239;-78
2023/12/14 04:02:58;;;;;;;14.87;12.90;;;4.90;99.90;;;;;;5074947;28;20558;-79
2023/12/14 04:05:24;;;;;;;16.27;13.13;;;4.90;99.90;;;;;;5056721;28;20221;-79
2023/12/14 04:07:51;;;;;;;16.33;12.60;;;4.90;99.90;;;;;;5056503;28;20186;-80
2023/12/14 04:10:17;;;;;;;16.40;13.27;;;4.90;99.90;;;;;;5074079;28;20245;-79
2023/12/14 04:12:42;;;;;;;17.47;14.43;;;5.00;99.90;;;;;;5073807;28;20263;-78
2023/12/14 04:15:10;;;;;;;18.23;14.27;;;4.90;99.90;;;;;;5074360;28;20171;-79
2023/12/14 04:17:36;;;;;;;16.93;13.03;;;4.90;99.90;;;;;;5074652;28;20182;-79
2023/12/14 04:20:02;;;;;;;17.13;14.03;;;4.80;99.90;;;;;;5075074;28;20291;-78
2023/12/14 04:22:28;;;;;;;18.03;14.53;;;4.80;99.90;;;;;;5059948;28;20185;-78
2023/12/14 04:24:54;;;;;;;16.83;13.90;;;4.70;99.90;;;;;;5078496;28;20217;-79
2023/12/14 04:27:20;;;;;;;17.27;13.70;;;4.80;99.90;;;;;;5077136;28;20186;-80
2023/12/14 04:29:46;;;;;;;19.53;15.20;;;4.80;99.90;;;;;;5077053;28;20173;-78
2023/12/14 04:32:12;;;;;;;18.33;14.83;;;4.70;99.90;;;;;;5079953;28;20219;-77
2023/12/14 04:34:38;;;;;;;20.87;16.17;;;4.50;99.90;;;;;;5078046;28;20179;-80
2023/12/14 04:37:04;;;;;;;24.40;16.87;;;4.50;99.90;;;;;;5073832;28;20175;-77
2023/12/14 04:39:29;;;;;;;18.53;15.30;;;4.50;99.90;;;;;;5073610;28;20209;-76
2023/12/14 04:41:55;;;;;;;20.97;16.43;;;4.60;99.90;;;;;;5073984;28;20163;-78
2023/12/14 04:44:22;;;;;;;21.10;16.77;;;4.70;99.90;;;;;;5079822;28;20187;-78
2023/12/14 04:46:50;;;;;;;22.70;15.73;;;4.70;99.90;;;;;;5074929;28;20179;-79
2023/12/14 04:49:16;;;;;;;19.10;16.10;;;4.70;99.90;;;;;;5075640;28;20176;-77
2023/12/14 04:51:43;;;;;;;20.60;16.00;;;4.80;99.90;;;;;;5074161;28;20299;-78
2023/12/14 04:54:08;;;;;;;21.80;16.60;;;4.80;99.90;;;;;;5078300;28;20953;-78
2023/12/14 04:56:34;;;;;;;22.00;16.13;;;4.70;99.90;;;;;;5079052;28;20183;-80
2023/12/14 04:59:01;;;;;;;20.47;16.40;;;4.70;99.90;;;;;;5077331;28;20202;-80
2023/12/14 05:01:26;;;;;;;19.70;16.07;;;4.70;99.90;;;;;;5077927;28;20183;-79
2023/12/14 05:03:53;;;;;;;21.03;16.33;;;4.70;99.90;;;;;;5077472;28;20638;-79
2023/12/14 05:06:19;;;;;;;18.43;15.87;;;4.70;99.90;;;;;;5078516;28;20257;-79
2023/12/14 05:08:45;;;;;;;21.00;15.77;;;4.70;99.90;;;;;;5085883;28;20238;-78
2023/12/14 05:11:12;;;;;;;21.40;15.87;;;4.80;99.90;;;;;;5096449;28;20188;-77
2023/12/14 05:13:38;;;;;;;19.23;15.83;;;4.80;99.90;;;;;;5096443;28;20171;-78
2023/12/14 05:16:04;;;;;;;21.57;15.77;;;4.80;99.90;;;;;;5087138;28;20182;-76
2023/12/14 05:18:29;;;;;;;17.13;14.73;;;4.80;99.90;;;;;;5091399;28;20180;-79
2023/12/14 05:20:55;;;;;;;19.97;14.97;;;4.80;99.90;;;;;;5077575;28;20223;-79
2023/12/14 05:23:21;;;;;;;20.97;15.00;;;4.80;99.90;;;;;;5077223;28;20193;-79
2023/12/14 05:25:47;;;;;;;20.83;15.77;;;4.70;99.90;;;;;;5078788;28;20234;-80
2023/12/14 05:28:13;;;;;;;15.97;14.33;;;4.70;99.90;;;;;;5076847;28;20167;-79
2023/12/14 05:30:39;;;;;;;18.53;14.33;;;4.80;99.90;;;;;;5076675;28;20620;-79
2023/12/14 05:33:04;;;;;;;22.67;17.00;;;4.80;99.90;;;;;;5076948;28;20270;-78
2023/12/14 05:35:30;;;;;;;21.53;15.60;;;4.80;99.90;;;;;;5076851;28;20271;-77
2023/12/14 05:37:56;;;;;;;17.27;15.07;;;4.70;99.90;;;;;;5076705;28;20171;-78
2023/12/14 05:40:22;;;;;;;19.23;13.93;;;4.70;99.90;;;;;;5076773;28;20206;-79
2023/12/14 05:42:47;;;;;;;18.03;15.17;;;4.70;99.90;;;;;;5083087;28;20179;-77
2023/12/14 05:45:13;;;;;;;19.43;14.40;;;4.60;99.90;;;;;;5077461;28;20398;-80
2023/12/14 05:47:41;;;;;;;16.80;13.37;;;4.50;99.90;;;;;;5078121;28;20175;-78
2023/12/14 05:50:09;;;;;;;16.30;13.73;;;4.50;99.90;;;;;;5078072;28;20202;-79
2023/12/14 05:52:36;;;;;;;15.57;12.63;;;4.50;99.90;;;;;;5076890;28;20199;-79
2023/12/14 05:55:02;;;;;;;19.07;13.03;;;4.60;99.90;;;;;;5077193;28;20169;-78
2023/12/14 05:57:28;;;;;;;15.47;12.73;;;4.70;99.90;;;;;;5076228;28;20187;-80
2023/12/14 05:59:53;;;;;;;14.13;12.00;;;4.70;99.90;;;;;;5076332;28;20552;-80
2023/12/14 06:02:19;;;;;;;15.20;12.60;;;4.70;99.90;;;;;;5076248;28;20179;-80
2023/12/14 06:04:45;;;;;;;16.07;12.20;;;4.70;99.90;;;;;;5076526;28;20179;-80
2023/12/14 06:07:11;;;;;;;16.77;13.00;;;4.70;99.90;;;;;;5076718;28;20194;-78
2023/12/14 06:09:37;;;;;;;15.40;12.30;;;4.80;99.90;;;;;;5076727;28;20237;-80
2023/12/14 06:12:04;;;;;;;14.77;12.20;;;4.80;99.90;;;;;;5075706;28;20224;-78
2023/12/14 06:14:30;;;;;;;13.93;11.87;;;4.80;99.90;;;;;;5077510;28;20172;-78
2023/12/14 06:16:58;;;;;;;13.40;11.40;;;4.80;99.90;;;;;;5075496;28;20659;-77
2023/12/14 06:19:24;;;;;;;13.47;11.00;;;4.80;99.90;;;;;;5076517;28;20725;-81
2023/12/14 06:21:50;;;;;;;14.53;11.40;;;4.80;99.90;;;;;;5076489;28;20620;-80
2023/12/14 06:24:15;;;;;;;12.50;10.93;;;4.80;99.90;;;;;;5076229;28;20181;-81
2023/12/14 06:26:45;;;;;;;12.47;11.17;;;4.80;99.90;;;;;;5075955;28;20210;-80
2023/12/14 06:29:12;;;;;;;12.90;11.03;;;4.90;99.90;;;;;;5080031;28;20262;-79
2023/12/14 06:31:38;;;;;;;13.63;11.10;;;4.80;99.90;;;;;;5098625;28;20263;-77
2023/12/14 06:34:05;;;;;;;13.33;11.00;;;4.80;99.90;;;;;;5100961;28;20591;-77
2023/12/14 06:36:31;;;;;;;14.93;11.77;;;4.80;99.90;;;;;;5099620;28;20174;-78
2023/12/14 06:38:58;;;;;;;14.20;11.67;;;4.90;99.90;;;;;;5097610;28;20199;-79
2023/12/14 06:41:25;;;;;;;12.63;10.93;;;4.70;99.90;;;;;;5095779;28;20187;-80
2023/12/14 06:43:52;;;;;;;12.40;11.07;;;4.80;99.90;;;;;;5096059;28;20180;-79
2023/12/14 06:46:19;;;;;;;14.77;12.37;;;4.80;99.90;;;;;;5096180;28;20171;-78
2023/12/14 06:48:45;;;;;;;17.03;12.03;;;4.80;99.90;;;;;;5095889;28;20210;-78
2023/12/14 06:51:11;;;;;;;17.20;12.37;;;4.80;99.90;;;;;;5079067;28;20526;-78
2023/12/14 06:53:40;;;;;;;13.20;11.60;;;4.90;99.90;;;;;;5096485;28;20228;-78
2023/12/14 06:56:09;;;;;;;13.67;11.90;;;4.90;99.90;;;;;;5097095;28;20623;-79
2023/12/14 06:58:35;;;;;;;15.87;12.03;;;5.00;99.90;;;;;;5096141;28;20185;-77
2023/12/14 07:01:01;;;;;;;13.07;11.77;;;4.90;99.90;;;;;;5095763;28;20230;-78
2023/12/14 07:03:27;;;;;;;15.97;12.43;;;4.90;99.90;;;;;;5096039;28;20175;-80
2023/12/14 07:05:52;;;;;;;19.10;13.73;;;4.90;99.90;;;;;;5095981;28;20171;-77
2023/12/14 07:08:18;;;;;;;14.80;12.37;;;4.90;99.90;;;;;;5095080;28;20588;-81
2023/12/14 07:10:44;;;;;;;16.27;12.77;;;5.00;99.90;;;;;;5096255;28;20176;-78
2023/12/14 07:13:10;;;;;;;15.27;12.37;;;5.00;99.90;;;;;;5096531;28;20174;-77
2023/12/14 07:15:36;;;;;;;16.60;12.90;;;5.00;99.90;;;;;;5096844;28;20254;-77
2023/12/14 07:18:02;;;;;;;15.83;12.47;;;5.00;99.90;;;;;;5101046;28;20175;-79
2023/12/14 07:20:28;;;;;;;17.10;13.53;;;5.00;99.90;;;;;;5077519;28;20274;-78
2023/12/14 07:22:53;;;;;;;14.87;12.10;;;5.10;99.90;;;;;;5097319;28;20163;-79
2023/12/14 07:25:19;;;;;;;13.97;12.23;;;5.10;99.90;;;;;;5111461;28;21029;-77
2023/12/14 07:27:46;;;;;;;15.17;12.07;;;5.10;99.90;;;;;;5082682;28;20171;-77
2023/12/14 07:30:12;;;;;;;17.27;12.83;;;5.10;99.90;;;;;;5097184;28;20646;-77
2023/12/14 07:32:38;;;;;;;17.23;13.10;;;5.10;99.90;;;;;;5078760;28;20179;-77
2023/12/14 07:35:05;;;;;;;17.60;13.07;;;5.20;99.90;;;;;;5113857;28;20189;-76
2023/12/14 07:37:30;;;;;;;14.17;12.63;;;5.20;99.90;;;;;;5111339;28;20244;-76
2023/12/14 07:39:57;;;;;;;15.90;12.80;;;5.20;99.90;;;;;;5095170;28;20235;-76
2023/12/14 07:42:23;;;;;;;15.37;12.90;;;5.20;99.90;;;;;;5095505;28;20183;-76
2023/12/14 07:44:49;;;;;;;18.63;13.30;;;5.30;99.90;;;;;;5095286;28;20644;-76
2023/12/14 07:47:15;;;;;;;17.07;14.47;;;5.30;99.90;;;;;;5095388;28;20185;-76
2023/12/14 07:49:41;;;;;;;14.93;12.80;;;5.30;99.90;;;;;;5076439;28;20670;-79
2023/12/14 07:52:09;;;;;;;17.37;14.37;;;5.30;99.90;;;;;;5094960;28;20173;-79
2023/12/14 07:54:35;;;;;;;17.57;14.70;;;5.30;99.90;;;;;;5095136;28;20231;-77
2023/12/14 07:57:01;;;;;;;15.60;13.47;;;5.30;99.90;;;;;;5095464;28;20258;-78
2023/12/14 07:59:29;;;;;;;17.37;13.73;;;5.30;99.90;;;;;;5076692;28;20298;-78
2023/12/14 08:01:55;;;;;;;21.03;14.70;;;5.30;99.90;;;;;;5094879;28;20619;-78
2023/12/14 08:04:21;;;;;;;17.97;14.83;;;5.40;99.90;;;;;;5094531;28;20183;-76
2023/12/14 08:06:47;;;;;;;17.07;15.10;;;5.40;99.90;;;;;;5095032;28;20177;-76
2023/12/14 08:09:12;;;;;;;16.37;14.67;;;5.30;99.90;;;;;;5094237;28;20263;-77
2023/12/14 08:11:38;;;;;;;19.67;14.20;;;5.20;99.90;;;;;;5095118;28;20176;-77
2023/12/14 08:14:04;;;;;;;17.60;14.43;;;5.30;99.90;;;;;;5095357;28;20184;-76
2023/12/14 08:16:29;;;;;;;16.43;14.20;;;5.30;99.90;;;;;;5098996;28;20184;-77
2023/12/14 08:18:55;;;;;;;20.77;14.93;;;5.50;99.90;;;;;;5095724;28;20173;-79
2023/12/14 08:21:21;;;;;;;20.07;14.73;;;5.50;99.90;;;;;;5094398;28;20195;-77
2023/12/14 08:23:47;;;;;;;23.03;16.30;;;5.60;99.90;;;;;;5094608;28;20504;-76
2023/12/14 08:26:12;;;;;;;21.00;15.47;;;5.70;99.90;;;;;;5093297;28;20182;-78
2023/12/14 08:28:39;;;;;;;19.80;14.83;;;5.80;99.90;;;;;;5094397;28;20587;-77
2023/12/14 08:31:05;;;;;;;20.80;15.23;;;5.80;99.90;;;;;;5093810;28;20177;-77
2023/12/14 08:33:31;;;;;;;21.57;15.40;;;5.90;99.90;;;;;;5094626;28;20178;-77
2023/12/14 08:35:57;;;;;;;19.10;16.10;;;5.80;99.90;;;;;;5095520;28;20226;-78
2023/12/14 08:38:24;;;;;;;20.33;16.20;;;5.90;99.90;;;;;;5103565;28;20258;-77
2023/12/14 08:40:50;;;;;;;20.27;17.93;;;5.90;99.90;;;;;;5101467;28;20238;-78
2023/12/14 08:43:16;;;;;;;22.80;17.37;;;6.10;99.90;;;;;;5094530;28;20176;-78
2023/12/14 08:45:42;;;;;;;22.43;18.13;;;6.10;99.90;;;;;;5094716;28;20172;-78
2023/12/14 08:48:08;;;;;;;20.77;16.30;;;6.10;99.90;;;;;;5094418;28;20541;-78
2023/12/14 08:50:34;;;;;;;18.63;15.60;;;6.10;99.90;;;;;;5093579;28;20184;-78
2023/12/14 08:52:59;;;;;;;16.40;14.33;;;6.00;99.90;;;;;;5094796;28;20196;-76
2023/12/14 08:55:26;;;;;;;17.50;14.67;;;5.90;99.90;;;;;;5098678;28;20180;-76
2023/12/14 08:57:52;;;;;;;16.13;13.27;;;5.90;99.90;;;;;;5093698;28;20616;-78
2023/12/14 09:00:19;;;;;;;18.83;13.87;;;6.00;99.90;;;;;;5092848;28;20727;-78
2023/12/14 09:02:46;;;;;;;18.10;14.17;;;6.20;99.90;;;;;;5093627;28;20614;-77
2023/12/14 09:05:13;;;;;;;16.67;12.63;;;6.10;99.90;;;;;;5093122;28;20191;-77
2023/12/14 09:07:39;;;;;;;15.57;13.80;;;6.20;99.90;;;;;;5093223;28;20169;-77
2023/12/14 09:10:06;;;;;;;15.60;13.23;;;6.20;99.90;;;;;;5093478;28;20227;-77
2023/12/14 09:12:33;;;;;;;16.70;12.83;;;6.30;99.90;;;;;;5099693;28;20190;-79
2023/12/14 09:15:00;;;;;;;14.60;12.70;;;6.20;99.90;;;;;;5094101;28;20208;-80
2023/12/14 09:17:26;;;;;;;15.93;13.20;;;6.40;99.90;;;;;;5100511;28;20185;-78
2023/12/14 09:19:52;;;;;;;17.27;13.33;;;6.60;99.90;;;;;;5093279;28;20206;-77
2023/12/14 09:22:18;;;;;;;14.93;11.63;;;6.80;99.90;;;;;;5095206;28;20252;-78
2023/12/14 09:24:43;;;;;;;14.80;12.20;;;6.70;99.90;;;;;;5093755;28;20209;-81
2023/12/14 09:27:09;;;;;;;15.07;12.13;;;6.60;99.90;;;;;;5093380;28;20529;-76
2023/12/14 09:29:35;;;;;;;12.83;11.07;;;6.70;99.90;;;;;;5093599;28;20581;-77
2023/12/14 09:32:01;;;;;;;15.43;12.27;;;6.70;99.90;;;;;;5093274;28;20251;-77
2023/12/14 09:34:26;;;;;;;13.47;12.07;;;6.60;99.90;;;;;;5092855;28;20198;-77
2023/12/14 09:36:52;;;;;;;16.23;12.40;;;6.70;99.90;;;;;;5092882;28;20176;-78
2023/12/14 09:39:21;;;;;;;15.07;11.20;;;6.70;99.90;;;;;;5096122;28;20318;-78
2023/12/14 09:41:47;;;;;;;15.20;11.93;;;6.70;99.90;;;;;;5096394;28;20200;-77
2023/12/14 09:44:13;;;;;;;14.77;11.50;;;6.70;99.90;;;;;;5096601;28;20173;-77
2023/12/14 09:46:41;;;;;;;13.43;12.00;;;6.80;99.90;;;;;;5096704;28;20227;-81
2023/12/14 09:49:08;;;;;;;14.47;11.97;;;6.80;99.90;;;;;;5103836;28;20186;-78
2023/12/14 09:51:33;;;;;;;12.40;11.07;;;6.90;99.90;;;;;;5073036;28;20204;-77
2023/12/14 09:53:59;;;;;;;13.10;10.90;;;6.80;99.90;;;;;;5111665;28;20205;-79
2023/12/14 09:56:26;;;;;;;11.77;10.13;;;6.90;99.90;;;;;;5105800;28;20193;-78
2023/12/14 09:58:53;;;;;;;14.30;11.10;;;6.90;99.90;;;;;;5119042;28;20154;-77
2023/12/14 10:01:25;;;;;;;13.77;10.97;;;7.10;99.90;;;;;;5107338;28;20173;-78
2023/12/14 10:04:06;;;;;;;13.53;11.63;;;7.20;99.90;;;;;;5079311;28;20188;-76
2023/12/14 10:06:59;;;;;;;13.47;10.63;;;7.20;99.90;;;;;;5096683;28;20565;-78
2023/12/14 10:09:28;;;;;;;17.63;11.73;;;7.10;99.90;;;;;;5095910;28;20232;-78
2023/12/14 10:12:04;;;;;;;16.13;13.10;;;7.10;99.90;;;;;;5116650;28;20176;-77
2023/12/14 10:14:30;;;;;;;15.87;13.03;;;7.20;99.90;;;;;;5117276;28;20568;-77
2023/12/14 10:16:55;;;;;;;15.83;13.00;;;7.20;99.90;;;;;;5120145;28;20174;-79
2023/12/14 10:19:21;;;;;;;15.17;12.33;;;7.30;99.90;;;;;;5118713;28;20287;-78
2023/12/14 10:21:48;;;;;;;13.60;11.77;;;7.30;99.90;;;;;;5121665;28;20200;-80
2023/12/14 10:24:15;;;;;;;13.37;11.90;;;7.20;99.90;;;;;;5120074;27;20612;-77
2023/12/14 10:26:41;;;;;;;14.90;12.00;;;7.20;99.90;;;;;;5116393;28;20183;-78
2023/12/14 10:29:08;;;;;;;15.10;11.27;;;7.20;99.90;;;;;;5117160;28;20186;-78
2023/12/14 10:31:37;;;;;;;13.23;10.83;;;7.10;99.90;;;;;;5115287;28;20190;-78
2023/12/14 10:34:04;;;;;;;14.67;12.10;;;7.00;99.90;;;;;;5116733;28;20180;-77
2023/12/14 10:36:31;;;;;;;15.90;11.77;;;7.20;99.90;;;;;;5116576;28;20178;-78
2023/12/14 10:38:58;;;;;;;14.93;12.10;;;7.40;99.90;;;;;;5116328;28;20171;-77
2023/12/14 10:41:25;;;;;;;15.97;12.23;;;7.50;99.90;;;;;;5116932;28;20226;-77
2023/12/14 10:43:56;;;;;;;15.97;12.03;;;7.60;99.90;;;;;;5115934;28;20310;-79
2023/12/14 10:46:23;;;;;;;15.17;11.50;;;7.60;99.90;;;;;;5116496;28;20170;-79
2023/12/14 10:48:52;;;;;;;12.87;11.23;;;7.70;99.90;;;;;;5115254;28;20625;-77
2023/12/14 10:51:20;;;;;;;12.30;10.23;;;7.80;99.90;;;;;;5116547;28;20202;-77
2023/12/14 10:53:48;;;;;;;14.37;11.13;;;7.90;99.90;;;;;;5116303;28;20173;-77
2023/12/14 10:56:14;;;;;;;14.73;10.80;;;8.00;99.90;;;;;;5115379;28;20182;-78
2023/12/14 10:58:53;;;;;;;12.07;10.00;;;8.10;99.90;;;;;;5115972;28;20168;-77
2023/12/14 11:01:21;;;;;;;11.43;10.20;;;8.10;99.90;;;;;;5115768;28;20639;-77
2023/12/14 11:03:49;;;;;;;12.37;10.07;;;8.20;99.90;;;;;;5115399;28;20168;-76
2023/12/14 11:06:24;;;;;;;10.63;9.17;;;8.30;99.90;;;;;;5115432;28;20201;-76
2023/12/14 11:08:52;;;;;;;12.57;9.53;;;8.40;99.90;;;;;;5110302;28;20667;-76
2023/12/14 11:11:20;;;;;;;11.23;9.00;;;8.50;99.90;;;;;;5096314;28;20237;-76
2023/12/14 11:13:52;;;;;;;13.23;9.87;;;8.50;99.90;;;;;;5101265;28;20171;-78
2023/12/14 11:16:21;;;;;;;10.03;9.10;;;8.40;99.90;;;;;;5090930;28;20192;-76
2023/12/14 11:18:47;;;;;;;13.20;10.27;;;8.50;99.90;;;;;;5104704;28;20179;-77
2023/12/14 11:21:21;;;;;;;12.33;9.97;;;8.60;99.90;;;;;;5096582;28;20204;-77
2023/12/14 11:23:50;;;;;;;16.10;11.33;;;8.60;99.90;;;;;;5094803;28;20157;-77
2023/12/14 11:26:21;;;;;;;10.93;9.00;;;8.70;99.90;;;;;;5094760;28;20175;-77
2023/12/14 11:28:48;;;;;;;11.50;8.70;;;8.70;99.90;;;;;;5094859;28;20652;-78
2023/12/14 11:31:14;;;;;;;9.70;8.67;;;8.70;99.90;;;;;;5098159;28;20228;-77
2023/12/14 11:33:40;;;;;;;9.80;8.80;;;8.80;99.90;;;;;;5095829;28;20206;-77
2023/12/14 11:36:08;;;;;;;11.63;9.80;;;8.80;99.90;;;;;;5095900;28;20180;-76
2023/12/14 11:38:35;;;;;;;11.37;9.50;;;8.70;99.90;;;;;;5095007;28;20275;-76
2023/12/14 11:41:00;;;;;;;11.57;9.43;;;8.80;99.90;;;;;;5094132;28;20635;-78
2023/12/14 11:43:26;;;;;;;12.13;9.40;;;8.90;99.90;;;;;;5095139;28;20193;-77
2023/12/14 11:45:54;;;;;;;10.23;9.10;;;9.00;99.90;;;;;;5094985;28;20652;-77
2023/12/14 11:48:20;;;;;;;11.30;10.10;;;9.10;99.90;;;;;;5096163;28;20173;-78
2023/12/14 11:50:47;;;;;;;12.60;9.73;;;9.00;99.90;;;;;;5096207;28;20168;-78
2023/12/14 11:53:13;;;;;;;11.97;10.00;;;9.00;99.90;;;;;;5094499;28;20166;-76
2023/12/14 11:55:41;;;;;;;14.27;10.33;;;9.10;99.90;;;;;;5094354;28;20536;-78
2023/12/14 11:58:08;;;;;;;12.13;10.47;;;9.10;99.90;;;;;;5093843;28;20256;-77
2023/12/14 12:00:39;;;;;;;11.00;9.43;;;9.20;99.90;;;;;;5075655;28;20257;-79
2023/12/14 12:03:15;;;;;;;13.10;9.67;;;9.20;99.90;;;;;;5078841;28;20181;-79
2023/12/14 12:05:49;;;;;;;14.47;10.00;;;9.20;99.90;;;;;;5095584;28;20648;-77
2023/12/14 12:08:18;;;;;;;13.60;9.80;;;9.10;99.90;;;;;;5093906;28;20192;-78
2023/12/14 12:10:46;;;;;;;5.00;4.60;;;9.00;99.90;;;;;;5093728;28;20179;-76
2023/12/14 12:13:21;;;;;;;4.53;4.10;;;9.10;99.90;;;;;;5081026;28;20245;-77
2023/12/14 12:15:47;;;;;;;5.87;5.27;;;9.10;99.90;;;;;;5094981;28;20577;-77
2023/12/14 12:18:16;;;;;;;2.93;2.63;;;9.00;99.90;;;;;;5096690;28;20259;-77
2023/12/14 12:20:43;;;;;;;4.17;3.77;;;9.00;99.90;;;;;;5108653;28;20197;-77
2023/12/14 12:23:09;;;;;;;6.27;5.27;;;9.10;99.90;;;;;;5097222;28;20659;-77
2023/12/14 12:25:35;;;;;;;4.70;3.03;;;9.10;99.90;;;;;;5100842;28;20185;-77
2023/12/14 12:28:02;;;;;;;2.90;2.17;;;9.10;99.90;;;;;;5080452;28;20188;-78
2023/12/14 12:30:28;;;;;;;1.87;1.70;;;8.90;99.90;;;;;;5097366;28;20206;-75
2023/12/14 12:32:57;;;;;;;1.97;1.87;;;8.90;99.90;;;;;;5094287;28;20179;-77
2023/12/14 12:35:25;;;;;;;2.00;1.90;;;9.00;99.90;;;;;;5093712;28;20293;-76
2023/12/14 12:37:53;;;;;;;1.73;1.63;;;9.10;99.90;;;;;;5094024;28;20170;-77